createdAt,value
2023-02-27T00:00:20.626Z,8.37
2023-02-27T00:03:27.376Z,7.77
2023-02-27T00:06:33.793Z,8.37
2023-02-27T00:09:42.004Z,13.17
2023-02-27T00:12:49.861Z,7.90
2023-02-27T00:15:56.514Z,9.20
2023-02-27T00:19:04.951Z,10.77
2023-02-27T00:22:11.218Z,10.77
2023-02-27T00:25:17.740Z,7.83
2023-02-27T00:28:25.334Z,14.17
2023-02-27T00:31:32.059Z,12.13
2023-02-27T00:34:37.916Z,7.33
2023-02-27T00:37:44.046Z,9.57
2023-02-27T00:40:50.339Z,5.60
2023-02-27T00:43:57.734Z,6.80
2023-02-27T00:47:04.403Z,8.87
2023-02-27T00:50:12.067Z,8.20
2023-02-27T00:53:18.831Z,13.10
2023-02-27T00:56:25.515Z,6.90
2023-02-27T00:59:33.332Z,5.27
2023-02-27T01:02:39.876Z,12.37
2023-02-27T01:05:46.059Z,16.97
2023-02-27T01:08:52.616Z,13.60
2023-02-27T01:11:59.104Z,8.87
2023-02-27T01:15:08.878Z,10.37
2023-02-27T01:18:15.584Z,13.70
2023-02-27T01:21:23.595Z,8.13
2023-02-27T01:24:30.278Z,7.73
2023-02-27T01:27:36.737Z,12.83
2023-02-27T01:30:44.473Z,6.53
2023-02-27T01:33:51.145Z,8.73
2023-02-27T01:36:57.143Z,6.17
2023-02-27T01:40:04.161Z,17.53
2023-02-27T01:43:17.566Z,10.93
2023-02-27T01:46:25.748Z,8.87
2023-02-27T01:49:35.599Z,8.13
2023-02-27T01:52:42.888Z,10.63
2023-02-27T01:55:51.032Z,17.80
2023-02-27T01:59:00.715Z,11.00
2023-02-27T02:02:14.020Z,8.40
2023-02-27T02:05:22.085Z,10.53
2023-02-27T02:08:32.021Z,16.43
2023-02-27T02:11:39.341Z,17.00
2023-02-27T02:14:46.037Z,28.67
2023-02-27T02:18:06.838Z,6.33
2023-02-27T02:22:10.067Z,7.47
2023-02-27T02:26:09.869Z,11.73
2023-02-27T02:30:07.411Z,17.00
2023-02-27T02:33:51.307Z,11.83
2023-02-27T02:37:33.531Z,10.60
2023-02-27T02:40:50.644Z,23.77
2023-02-27T02:44:05.334Z,15.40
2023-02-27T02:47:22.353Z,11.67
2023-02-27T02:50:32.549Z,13.13
2023-02-27T02:53:46.748Z,12.03
2023-02-27T02:57:01.966Z,12.27
2023-02-27T03:00:14.309Z,9.17
2023-02-27T03:03:27.537Z,12.33
2023-02-27T03:06:36.414Z,11.83
2023-02-27T03:09:46.999Z,25.00
2023-02-27T03:13:00.506Z,17.63
2023-02-27T03:16:12.271Z,13.63
2023-02-27T03:19:23.489Z,9.47
2023-02-27T03:22:34.362Z,12.13
2023-02-27T03:25:41.424Z,15.73
2023-02-27T03:28:56.199Z,2.30
2023-02-27T03:32:05.861Z,1.20
2023-02-27T03:35:13.375Z,7.30
2023-02-27T03:38:25.552Z,2.10
2023-02-27T03:41:37.006Z,2.10
2023-02-27T03:44:53.951Z,1.90
2023-02-27T03:48:00.143Z,2.37
2023-02-27T03:51:07.013Z,1.30
2023-02-27T03:54:16.411Z,3.97
2023-02-27T03:57:22.728Z,4.80
2023-02-27T04:00:31.027Z,15.43
2023-02-27T04:03:45.519Z,10.13
2023-02-27T04:07:15.576Z,6.13
2023-02-27T04:10:35.439Z,10.40
2023-02-27T04:13:53.033Z,35.77
2023-02-27T04:17:17.121Z,2.93
2023-02-27T04:20:40.214Z,1.33
2023-02-27T04:23:56.240Z,1.40
2023-02-27T04:27:14.853Z,1.00
2023-02-27T04:30:30.009Z,1.13
2023-02-27T04:33:46.382Z,1.97
2023-02-27T04:36:59.377Z,3.50
2023-02-27T04:40:11.605Z,3.30
2023-02-27T04:43:19.266Z,10.80
2023-02-27T04:46:28.726Z,9.67
2023-02-27T04:49:40.610Z,7.70
2023-02-27T04:52:52.635Z,8.30
2023-02-27T04:56:03.905Z,6.30
2023-02-27T04:59:14.483Z,4.57
2023-02-27T05:02:25.431Z,2.20
2023-02-27T05:05:36.433Z,6.03
2023-02-27T05:08:46.474Z,5.03
2023-02-27T05:11:58.248Z,14.00
2023-02-27T05:15:08.921Z,4.33
2023-02-27T05:18:18.524Z,60.50
2023-02-27T05:21:32.263Z,11.37
2023-02-27T05:24:47.386Z,4.13
2023-02-27T05:27:58.027Z,10.40
2023-02-27T05:31:09.634Z,11.77
2023-02-27T05:34:22.714Z,19.93
2023-02-27T05:37:35.671Z,20.37
2023-02-27T05:40:46.695Z,15.07
2023-02-27T05:43:56.877Z,14.07
2023-02-27T05:47:10.584Z,29.47
2023-02-27T05:50:20.971Z,28.30
2023-02-27T05:53:35.110Z,19.80
2023-02-27T05:56:45.380Z,17.43
2023-02-27T05:59:57.648Z,7.00
2023-02-27T06:03:04.472Z,6.03
2023-02-27T06:06:15.585Z,13.33
2023-02-27T06:09:23.534Z,11.23
2023-02-27T06:12:29.686Z,8.67
2023-02-27T06:15:35.913Z,6.40
2023-02-27T06:18:42.159Z,5.70
2023-02-27T06:21:48.419Z,7.60
2023-02-27T06:24:56.150Z,7.57
2023-02-27T06:28:02.677Z,7.83
2023-02-27T06:31:08.813Z,4.67
2023-02-27T06:34:14.845Z,6.37
2023-02-27T06:37:21.827Z,7.00
2023-02-27T06:40:29.260Z,7.27
2023-02-27T06:43:37.247Z,10.70
2023-02-27T06:46:43.401Z,18.53
2023-02-27T06:49:49.708Z,16.00
2023-02-27T06:52:55.681Z,3.27
2023-02-27T06:56:03.088Z,17.93
2023-02-27T06:59:09.390Z,20.43
2023-02-27T07:02:17.634Z,11.70
2023-02-27T07:05:23.983Z,15.33
2023-02-27T07:08:30.611Z,7.50
2023-02-27T07:11:38.136Z,4.37
2023-02-27T07:14:44.353Z,3.97
2023-02-27T07:17:50.660Z,5.30
2023-02-27T07:20:56.828Z,8.07
2023-02-27T07:24:04.982Z,41.57
2023-02-27T07:27:12.591Z,8.57
2023-02-27T07:30:19.747Z,4.50
2023-02-27T07:33:26.237Z,9.13
2023-02-27T07:36:32.723Z,42.60
2023-02-27T07:39:39.540Z,18.97
2023-02-27T07:42:48.601Z,17.37
2023-02-27T07:45:54.941Z,9.73
2023-02-27T07:49:01.207Z,20.23
2023-02-27T07:52:08.446Z,8.40
2023-02-27T07:55:15.679Z,17.83
2023-02-27T07:58:23.297Z,11.43
2023-02-27T08:01:29.760Z,6.27
2023-02-27T08:04:36.238Z,6.87
2023-02-27T08:07:42.974Z,8.40
2023-02-27T08:10:48.857Z,10.03
2023-02-27T08:14:00.670Z,4.47
2023-02-27T08:17:07.654Z,6.17
2023-02-27T08:20:15.015Z,5.27
2023-02-27T08:23:20.878Z,6.07
2023-02-27T08:26:27.472Z,9.50
2023-02-27T08:29:35.861Z,6.77
2023-02-27T08:32:42.106Z,5.20
2023-02-27T08:35:48.538Z,7.23
2023-02-27T08:38:55.030Z,14.60
2023-02-27T08:42:00.976Z,23.93
2023-02-27T08:45:11.522Z,13.80
2023-02-27T08:48:18.672Z,9.63
2023-02-27T08:51:25.227Z,9.70
2023-02-27T08:54:31.959Z,13.83
2023-02-27T08:57:38.475Z,8.23
2023-02-27T09:00:46.554Z,7.90
2023-02-27T09:03:52.976Z,6.93
2023-02-27T09:06:59.325Z,6.83
2023-02-27T09:10:07.405Z,8.80
2023-02-27T09:13:13.923Z,12.83
2023-02-27T09:16:23.385Z,39.53
2023-02-27T09:19:29.820Z,15.23
2023-02-27T09:22:36.297Z,15.97
2023-02-27T09:25:42.782Z,6.10
2023-02-27T09:28:49.792Z,14.53
2023-02-27T09:31:57.835Z,13.13
2023-02-27T09:35:04.102Z,11.40
2023-02-27T09:38:10.604Z,10.13
2023-02-27T09:41:53.391Z,20.63
2023-02-27T09:45:05.721Z,13.90
2023-02-27T09:48:22.275Z,16.73
2023-02-27T09:51:30.146Z,19.97
2023-02-27T09:54:36.521Z,23.57
2023-02-27T09:57:47.641Z,25.50
2023-02-27T10:01:01.551Z,16.83
2023-02-27T10:04:29.290Z,22.40
2023-02-27T10:07:42.305Z,10.77
2023-02-27T10:10:55.160Z,10.20
2023-02-27T10:14:09.484Z,14.40
2023-02-27T10:17:22.162Z,10.23
2023-02-27T10:20:32.475Z,32.37
2023-02-27T10:23:43.575Z,12.60
2023-02-27T10:26:50.246Z,16.13
2023-02-27T10:30:02.931Z,17.70
2023-02-27T10:33:15.188Z,16.37
2023-02-27T10:36:33.517Z,15.37
2023-02-27T10:39:47.717Z,12.67
2023-02-27T10:42:55.955Z,32.27
2023-02-27T10:46:03.125Z,26.03
2023-02-27T10:49:18.928Z,16.13
2023-02-27T10:52:27.579Z,16.60
2023-02-27T10:55:35.524Z,15.93
2023-02-27T10:58:42.043Z,18.13
2023-02-27T11:01:52.786Z,14.63
2023-02-27T11:05:01.644Z,15.40
2023-02-27T11:08:23.722Z,19.53
2023-02-27T11:11:30.465Z,16.87
2023-02-27T11:14:36.677Z,26.03
2023-02-27T11:17:43.550Z,31.40
2023-02-27T11:20:51.039Z,21.07
2023-02-27T11:24:01.280Z,21.27
2023-02-27T11:27:22.013Z,43.10
2023-02-27T11:30:32.083Z,26.37
2023-02-27T11:33:42.838Z,17.13
2023-02-27T11:36:51.215Z,14.77
2023-02-27T11:40:12.969Z,25.23
2023-02-27T11:43:21.671Z,33.07
2023-02-27T11:46:46.206Z,38.17
2023-02-27T11:50:37.705Z,16.37
2023-02-27T11:54:02.374Z,22.13
2023-02-27T11:57:22.279Z,16.07
2023-02-27T12:00:33.236Z,21.70
2023-02-27T12:03:48.631Z,20.30
2023-02-27T12:06:58.602Z,20.93
2023-02-27T12:10:13.103Z,11.30
2023-02-27T12:13:24.524Z,35.87
2023-02-27T12:16:37.377Z,29.83
2023-02-27T12:19:49.475Z,19.43
2023-02-27T12:22:56.564Z,17.50
2023-02-27T12:26:07.068Z,21.27
2023-02-27T12:29:24.241Z,11.77
2023-02-27T12:32:37.846Z,15.47
2023-02-27T12:35:48.442Z,24.37
2023-02-27T12:38:54.633Z,18.53
2023-02-27T12:42:27.848Z,15.20
2023-02-27T12:46:00.655Z,31.17
2023-02-27T12:49:29.633Z,36.37
2023-02-27T12:52:50.851Z,106.37
2023-02-27T12:56:04.679Z,33.83
2023-02-27T12:59:27.690Z,15.93
2023-02-27T13:02:59.145Z,23.90
2023-02-27T13:06:13.275Z,18.17
2023-02-27T13:09:29.918Z,23.47
2023-02-27T13:12:43.950Z,21.80
2023-02-27T13:15:54.888Z,18.37
2023-02-27T13:19:07.820Z,18.40
2023-02-27T13:22:22.023Z,17.50
2023-02-27T13:25:29.615Z,16.93
2023-02-27T13:28:36.196Z,20.40
2023-02-27T13:31:50.830Z,24.03
2023-02-27T13:35:03.569Z,24.57
2023-02-27T13:38:45.039Z,14.00
2023-02-27T13:41:51.299Z,22.17
2023-02-27T13:44:58.521Z,20.27
2023-02-27T13:48:32.474Z,18.80
2023-02-27T13:51:59.941Z,36.57
2023-02-27T13:55:20.075Z,32.20
2023-02-27T13:58:26.364Z,20.00
2023-02-27T14:01:35.105Z,31.97
2023-02-27T14:04:51.032Z,23.97
2023-02-27T14:08:06.534Z,17.67
2023-02-27T14:11:19.715Z,22.20
2023-02-27T14:14:47.329Z,11.53
2023-02-27T14:18:02.412Z,17.83
2023-02-27T14:21:53.035Z,8.90
2023-02-27T14:25:06.629Z,20.03
2023-02-27T14:28:21.911Z,13.80
2023-02-27T14:31:32.449Z,25.00
2023-02-27T14:34:41.895Z,16.83
2023-02-27T14:37:48.574Z,5.60
2023-02-27T14:41:16.188Z,8.63
2023-02-27T14:44:24.628Z,6.07
2023-02-27T14:47:34.600Z,24.43
2023-02-27T14:50:42.807Z,6.57
2023-02-27T14:54:00.954Z,11.57
2023-02-27T14:57:08.783Z,9.80
2023-02-27T15:00:32.328Z,16.00
2023-02-27T15:03:44.290Z,11.03
2023-02-27T15:06:52.434Z,36.80
2023-02-27T15:10:03.251Z,20.03
2023-02-27T15:13:25.677Z,14.60
2023-02-27T15:16:38.705Z,12.23
2023-02-27T15:19:48.556Z,7.47
2023-02-27T15:22:55.225Z,14.10
2023-02-27T15:26:01.877Z,17.23
2023-02-27T15:29:15.854Z,14.67
2023-02-27T15:32:28.873Z,15.23
2023-02-27T15:35:38.407Z,32.17
2023-02-27T15:38:44.727Z,19.50
2023-02-27T15:41:52.955Z,13.30
2023-02-27T15:45:00.966Z,13.03
2023-02-27T15:48:08.155Z,18.27
2023-02-27T15:51:14.221Z,14.07
2023-02-27T15:54:23.842Z,15.27
2023-02-27T15:57:30.754Z,22.43
2023-02-27T16:00:38.760Z,22.20
2023-02-27T16:03:47.751Z,22.73
2023-02-27T16:07:01.987Z,12.33
2023-02-27T16:10:17.823Z,21.63
2023-02-27T16:13:35.026Z,19.73
2023-02-27T16:16:54.932Z,24.60
2023-02-27T16:20:02.955Z,28.70
2023-02-27T16:23:20.160Z,21.83
2023-02-27T16:26:32.019Z,28.63
2023-02-27T16:29:44.914Z,22.47
2023-02-27T16:33:00.526Z,22.47
2023-02-27T16:36:17.380Z,32.83
2023-02-27T16:39:23.862Z,17.77
2023-02-27T16:42:29.884Z,19.30
2023-02-27T16:45:36.067Z,17.93
2023-02-27T16:48:44.049Z,31.43
2023-02-27T16:51:51.496Z,24.20
2023-02-27T16:54:57.603Z,20.43
2023-02-27T16:58:03.755Z,25.00
2023-02-27T17:01:10.354Z,30.43
2023-02-27T17:04:25.616Z,17.47
2023-02-27T17:07:32.163Z,24.13
2023-02-27T17:10:38.262Z,19.83
2023-02-27T17:13:44.149Z,16.93
2023-02-27T17:16:50.316Z,10.37
2023-02-27T17:19:57.814Z,17.70
2023-02-27T17:23:04.275Z,17.47
2023-02-27T17:26:10.494Z,25.80
2023-02-27T17:29:16.782Z,25.77
2023-02-27T17:32:23.096Z,15.07
2023-02-27T17:35:31.404Z,17.97
2023-02-27T17:38:38.538Z,16.20
2023-02-27T17:41:45.683Z,16.90
2023-02-27T17:44:51.799Z,56.70
2023-02-27T17:47:58.080Z,53.23
2023-02-27T17:51:10.650Z,34.23
2023-02-27T17:54:16.765Z,45.03
2023-02-27T17:57:23.230Z,55.80
2023-02-27T18:00:30.287Z,42.43
2023-02-27T18:03:36.643Z,41.20
2023-02-27T18:06:44.284Z,32.30
2023-02-27T18:09:50.673Z,21.10
2023-02-27T18:12:56.837Z,10.73
2023-02-27T18:16:02.902Z,15.70
2023-02-27T18:19:09.026Z,17.33
2023-02-27T18:22:16.512Z,11.07
2023-02-27T18:25:23.704Z,34.23
2023-02-27T18:28:29.900Z,19.17
2023-02-27T18:31:38.162Z,30.57
2023-02-27T18:34:44.664Z,30.20
2023-02-27T18:37:52.149Z,43.67
2023-02-27T18:40:59.688Z,24.00
2023-02-27T18:44:05.971Z,33.60
2023-02-27T18:47:13.093Z,23.83
2023-02-27T18:50:19.102Z,34.60
2023-02-27T18:53:26.931Z,34.87
2023-02-27T18:56:33.085Z,53.07
2023-02-27T18:59:41.330Z,20.37
2023-02-27T19:02:47.392Z,22.07
2023-02-27T19:05:54.596Z,20.63
2023-02-27T19:09:02.776Z,14.07
2023-02-27T19:12:10.925Z,17.37
2023-02-27T19:15:17.259Z,17.70
2023-02-27T19:18:23.419Z,18.43
2023-02-27T19:21:30.146Z,18.60
2023-02-27T19:24:37.698Z,26.50
2023-02-27T19:27:44.942Z,33.93
2023-02-27T19:30:51.175Z,23.70
2023-02-27T19:33:58.084Z,20.53
2023-02-27T19:37:04.296Z,27.37
2023-02-27T19:40:13.357Z,24.17
2023-02-27T19:43:19.319Z,22.03
2023-02-27T19:46:27.738Z,17.93
2023-02-27T19:49:34.140Z,82.63
2023-02-27T19:52:40.500Z,55.03
2023-02-27T19:55:48.394Z,52.23
2023-02-27T19:58:55.032Z,52.80
2023-02-27T20:02:01.671Z,45.77
2023-02-27T20:05:08.229Z,35.67
2023-02-27T20:08:14.164Z,47.77
2023-02-27T20:11:22.477Z,28.90
2023-02-27T20:14:29.099Z,23.93
2023-02-27T20:17:35.303Z,40.13
2023-02-27T20:20:41.940Z,37.17
2023-02-27T20:23:48.907Z,50.00
2023-02-27T20:26:59.113Z,44.53
2023-02-27T20:30:05.938Z,45.50
2023-02-27T20:33:11.907Z,47.20
2023-02-27T20:36:18.892Z,43.73
2023-02-27T20:39:25.525Z,34.73
2023-02-27T20:42:33.066Z,41.40
2023-02-27T20:45:40.712Z,46.83
2023-02-27T20:48:47.153Z,49.47
2023-02-27T20:51:53.953Z,61.40
2023-02-27T20:55:00.151Z,63.00
2023-02-27T20:58:07.662Z,42.77
2023-02-27T21:01:15.853Z,57.50
2023-02-27T21:04:23.793Z,47.47
2023-02-27T21:07:30.243Z,45.17
2023-02-27T21:10:39.671Z,49.30
2023-02-27T21:13:47.539Z,55.73
2023-02-27T21:16:53.501Z,39.73
2023-02-27T21:19:59.656Z,32.90
2023-02-27T21:23:05.835Z,26.90
2023-02-27T21:26:16.952Z,35.63
2023-02-27T21:29:24.357Z,15.50
2023-02-27T21:32:30.407Z,6.60
2023-02-27T21:35:36.779Z,9.33
2023-02-27T21:38:43.325Z,6.83
2023-02-27T21:41:50.391Z,5.77
2023-02-27T21:44:58.033Z,9.57
2023-02-27T21:48:04.383Z,6.93
2023-02-27T21:51:10.710Z,8.20
2023-02-27T21:54:18.060Z,16.83
2023-02-27T21:57:24.270Z,4.87
2023-02-27T22:00:31.578Z,7.33
2023-02-27T22:03:38.024Z,12.10
2023-02-27T22:06:44.051Z,4.57
2023-02-27T22:09:51.006Z,4.33
2023-02-27T22:12:57.039Z,7.73
2023-02-27T22:16:07.470Z,5.10
2023-02-27T22:19:19.873Z,6.17
2023-02-27T22:22:26.789Z,6.27
2023-02-27T22:25:33.484Z,4.07
2023-02-27T22:28:41.571Z,8.83
2023-02-27T22:31:49.119Z,10.83
2023-02-27T22:34:59.131Z,8.43
2023-02-27T22:38:05.150Z,21.53
2023-02-27T22:41:13.468Z,10.83
2023-02-27T22:44:19.947Z,11.13
2023-02-27T22:47:27.917Z,7.30
2023-02-27T22:50:34.465Z,9.70
2023-02-27T22:53:41.686Z,3.07
2023-02-27T22:56:50.064Z,5.27
2023-02-27T22:59:56.301Z,3.07
2023-02-27T23:03:03.967Z,4.17
2023-02-27T23:06:11.926Z,8.60
2023-02-27T23:09:20.702Z,5.03
2023-02-27T23:12:27.547Z,8.03
2023-02-27T23:15:35.574Z,9.93
2023-02-27T23:18:45.738Z,9.87
2023-02-27T23:21:51.865Z,8.47
2023-02-27T23:24:58.396Z,6.97
2023-02-27T23:28:05.150Z,4.70
2023-02-27T23:31:11.658Z,7.27
2023-02-27T23:34:19.495Z,5.60
2023-02-27T23:37:25.872Z,9.50
2023-02-27T23:40:32.515Z,10.10
2023-02-27T23:43:38.523Z,11.87
2023-02-27T23:46:44.818Z,7.90
2023-02-27T23:49:53.236Z,11.83
2023-02-27T23:53:00.520Z,12.40
2023-02-27T23:56:14.456Z,6.43
2023-02-27T23:59:20.978Z,8.33
